NCAR-RAP Real-Time Weather Data

Output produced by METARs form (26 May 2022  07:54 UTC)
found at http://weather.rap.ucar.edu/surface/
 
KPDX 260653Z 31006KT 10SM CLR 16/09 A2995 RMK AO2 SLP139 T01560089
KPDX 260553Z 30004KT 10SM SCT230 17/09 A2994 RMK AO2 SLP138 T01670094 10228 20161 51004
KPDX 260453Z 30007KT 10SM SCT220 18/10 A2994 RMK AO2 SLP139 T01780100
KPDX 260353Z 33005KT 10SM FEW070 SCT220 19/11 A2993 RMK AO2 SLP136 T01890111
KPDX 260253Z 05003KT 10SM FEW070 SCT250 22/10 A2993 RMK AO2 SLP135 T02170100 56016
KPDX 260153Z 10005KT 10SM FEW025 BKN250 22/11 A2994 RMK AO2 SLP137 T02170111
KPDX 260053Z 09004KT 10SM FEW025 FEW080 BKN250 22/10 A2996 RMK AO2 SLP144 T02220100
KPDX 252353Z 07003KT 10SM FEW080 BKN250 23/09 A2998 RMK AO2 SLP151 T02280094 10228 20167 56017
KPDX 252253Z 05004KT 10SM FEW030 FEW080 BKN250 23/09 A2999 RMK AO2 SLP156 T02280094
KPDX 252153Z 05005KT 10SM FEW025 FEW070 BKN250 22/09 A3001 RMK AO2 SLP162 T02220089
KPDX 252053Z 09006KT 10SM FEW025 FEW065 BKN250 21/11 A3003 RMK AO2 SLP168 T02060111 58006
KPDX 251953Z 07006KT 10SM FEW025 BKN070 19/12 A3005 RMK AO2 SLP173 T01940122
KPDX 251853Z 08007KT 10SM SCT025 BKN070 18/12 A3005 RMK AO2 SLP174 T01830122
KPDX 251848Z 08007KT 10SM SCT025 BKN070 18/12 A3005 RMK AO2
KPDX 251753Z VRB04KT 10SM BKN015 BKN075 17/12 A3005 RMK AO2 SLP176 60007 T01720122 10172 20133 50005
KPDX 251735Z 19005KT 10SM BKN015 BKN075 17/12 A3005 RMK AO2 T01670122
KPDX 251653Z VRB05KT 10SM BKN012 16/12 A3006 RMK AO2 SLP178 T01560122
KPDX 251636Z 19004KT 10SM FEW005 BKN010 OVC015 15/12 A3006 RMK AO2 T01500122
KPDX 251553Z 16005KT 10SM BKN009 OVC014 14/12 A3005 RMK AO2 SLP175 T01390117
KPDX 251453Z 16005KT 10SM OVC008 14/12 A3004 RMK AO2 SLP171 60007 T01390117 51010
KPDX 251353Z 15003KT 10SM BKN007 OVC080 14/12 A3003 RMK AO2 RAE48 SLP169 P0001 T01390117
KPDX 251349Z 13004KT 10SM BKN007 OVC080 14/12 A3004 RMK AO2 RAE48 P0001
KPDX 251317Z 12004KT 6SM -RA BR FEW005 SCT009 OVC050 13/12 A3002 RMK AO2 P0001 T01330117
KPDX 251253Z 14006KT 2SM -RA BR SCT009 BKN014 OVC040 13/12 A3002 RMK AO2 SLP164 P0006 T01330117
KPDX 251153Z 14006KT 5SM -RA BR SCT007 BKN013 OVC031 14/12 A3001 RMK AO2 RAB03 SLP161 P0001 60001 70002 T01390122 10161 20139 52001
KPDX 251121Z 00000KT 7SM -RA FEW009 BKN014 OVC021 14/12 A3001 RMK AO2 RAB03 P0000 T01440117
KPDX 251053Z 00000KT 10SM BKN023 OVC028 14/11 A3001 RMK AO2 RAB29E53 SLP161 P0000 T01440111
KPDX 251035Z 00000KT 10SM -RA OVC029 14/11 A3001 RMK AO2 RAB29 P0000 T01440111
KPDX 250953Z 09003KT 10SM OVC032 14/11 A3000 RMK AO2 SLP159 T01440111
KPDX 250853Z 04003KT 10SM OVC034 14/12 A3001 RMK AO2 SLP160 T01440117 56004
KPDX 250753Z 14004KT 10SM BKN035 OVC042 15/11 A3001 RMK AO2 SLP160 T01500111 402060106
KPDX 250653Z 09003KT 10SM OVC041 15/12 A3001 RMK AO2 SLP160 T01500117
KPDX 250553Z 00000KT 10SM OVC044 16/12 A3002 RMK AO2 RAB20E30 SLP164 P0000 60001 T01560117 10189 20150 56002
KPDX 250453Z 00000KT 10SM OVC041 15/12 A3002 RMK AO2 SLP164 T01500117
KPDX 250353Z 11003KT 10SM BKN045 OVC060 15/11 A3002 RMK AO2 RAE26 SLP164 P0000 T01500111
KPDX 250253Z 35005KT 6SM -RA FEW032 BKN045 OVC060 15/11 A3002 RMK AO2 SLP166 P0001 60001 T01500106 56005
KPDX 250153Z 24004KT 10SM -RA BKN040 OVC060 18/09 A3003 RMK AO2 RAB50 SLP166 P0000 T01780094
KPDX 250053Z 20004KT 10SM BKN050 OVC075 19/08 A3003 RMK AO2 RAE19 SLP169 P0000 T01890083
KPDX 242353Z 27007KT 10SM -RA BKN055 OVC070 18/08 A3004 RMK AO2 RAB34 SLP171 P0000 60000 T01830078 10206 20156 55013
KPDX 242253Z 07005KT 10SM BKN075 OVC090 20/06 A3003 RMK AO2 SLP169 T02000061
KPDX 242153Z 08004KT 10SM OVC080 19/07 A3005 RMK AO2 SLP175 T01940067
KPDX 242053Z 33003KT 10SM OVC085 18/08 A3008 RMK AO2 SLP184 T01830078 58016
KPDX 241953Z 36004KT 10SM BKN100 18/08 A3010 RMK AO2 SLP191 T01780078
KPDX 241853Z 35003KT 10SM OVC110 17/08 A3011 RMK AO2 SLP196 T01670078
KPDX 241753Z VRB03KT 10SM FEW020 BKN095 15/08 A3012 RMK AO2 SLP200 T01500078 10156 20111 58003
KPDX 241653Z 33004KT 10SM SCT023 OVC100 14/08 A3013 RMK AO2 SLP202 T01440083
KPDX 241553Z 00000KT 10SM BKN020 BKN180 14/08 A3013 RMK AO2 SLP201 T01440083
KPDX 241453Z 00000KT 10SM FEW010 BKN023 13/08 A3013 RMK AO2 SLP202 T01280083 58002
KPDX 241353Z 33003KT 10SM BKN022 12/08 A3014 RMK AO2 SLP206 T01220078
KPDX 241253Z 32003KT 10SM BKN022 12/08 A3014 RMK AO2 SLP205 T01170078
KPDX 241153Z 00000KT 10SM OVC023 11/08 A3014 RMK AO2 SLP205 T01110078 10133 20106 56007
KPDX 241053Z 00000KT 10SM BKN024 11/08 A3015 RMK AO2 SLP206 T01110078
KPDX 240953Z 00000KT 10SM FEW030 11/07 A3015 RMK AO2 SLP208 T01110072
KPDX 240853Z 00000KT 10SM CLR 13/08 A3016 RMK AO2 SLP212 T01280078 58005